UAL639 KBOS-KLAX
Flight info
| Callsign | UAL639 |
|---|---|
| Flight time | N/A |
| Altitude | 34000 |
| Route | HYLND7 HYLND HANAA Q816 HOCKE GRB ODI/N0447F360 FSD J114 DVV J60 HVE PROMT Q88 HAKMN ANJLL4 |
| Aircraft | B738/M-SDE2E3FGHIRWXY/LB1 |
Departure
| Time | N/A |
|---|---|
| Airport | Boston Logan International Airport (KBOS) |
Arrival
| Time | 2026-04-21 03:29 |
|---|---|
| Airport | Los Angeles International Airport (KLAX) |
| Time | Latitude | Longitude | Altitude | Speed | Heading |
|---|---|---|---|---|---|
| 2026-04-21 02:15 | 38.39350 | -110.73193 | 36027 ft | 442 kts | 228° |
| 2026-04-21 02:16 | 38.35034 | -110.78803 | 36028 ft | 444 kts | 226° |
| 2026-04-21 02:16 | 38.30660 | -110.84357 | 36017 ft | 444 kts | 226° |
| 2026-04-21 02:17 | 38.26337 | -110.89904 | 35993 ft | 444 kts | 227° |
| 2026-04-21 02:17 | 38.22979 | -110.94238 | 35971 ft | 444 kts | 226° |
| 2026-04-21 02:18 | 38.21180 | -110.96564 | 35963 ft | 444 kts | 227° |
| 2026-04-21 02:18 | 38.16844 | -111.02164 | 35964 ft | 443 kts | 227° |
| 2026-04-21 02:19 | 38.12624 | -111.07605 | 35940 ft | 423 kts | 227° |
| 2026-04-21 02:19 | 38.08515 | -111.12893 | 35947 ft | 418 kts | 226° |
| 2026-04-21 02:20 | 38.04383 | -111.18206 | 35977 ft | 428 kts | 226° |
| 2026-04-21 02:20 | 38.00155 | -111.23632 | 35985 ft | 436 kts | 226° |
| 2026-04-21 02:21 | 37.96583 | -111.28205 | 36003 ft | 443 kts | 226° |
| 2026-04-21 02:21 | 37.91521 | -111.34676 | 35988 ft | 446 kts | 226° |
| 2026-04-21 02:22 | 37.87137 | -111.40268 | 35979 ft | 447 kts | 226° |
| 2026-04-21 02:22 | 37.83520 | -111.44876 | 35968 ft | 440 kts | 226° |
| 2026-04-21 02:23 | 37.79227 | -111.50336 | 35978 ft | 437 kts | 226° |
| 2026-04-21 02:23 | 37.74937 | -111.55781 | 35983 ft | 436 kts | 226° |
| 2026-04-21 02:24 | 37.70657 | -111.61205 | 35978 ft | 436 kts | 226° |
| 2026-04-21 02:24 | 37.66349 | -111.66654 | 35978 ft | 437 kts | 225° |
| 2026-04-21 02:25 | 37.62073 | -111.72054 | 35985 ft | 439 kts | 225° |
| 2026-04-21 02:25 | 37.57749 | -111.77509 | 35998 ft | 440 kts | 226° |
| 2026-04-21 02:26 | 37.53416 | -111.82965 | 36019 ft | 440 kts | 225° |
| 2026-04-21 02:26 | 37.49172 | -111.88534 | 36006 ft | 441 kts | 232° |
| 2026-04-21 02:27 | 37.45568 | -111.94764 | 36006 ft | 440 kts | 235° |
| 2026-04-21 02:27 | 37.41998 | -112.01022 | 36002 ft | 440 kts | 234° |
| 2026-04-21 02:28 | 37.38372 | -112.07211 | 35990 ft | 439 kts | 234° |
| 2026-04-21 02:28 | 37.34747 | -112.13382 | 35961 ft | 438 kts | 233° |
| 2026-04-21 02:29 | 37.31133 | -112.19544 | 35968 ft | 436 kts | 233° |
| 2026-04-21 02:29 | 37.27562 | -112.25623 | 35968 ft | 434 kts | 233° |
| 2026-04-21 02:30 | 37.23983 | -112.31704 | 35970 ft | 432 kts | 233° |
| 2026-04-21 02:30 | 37.20418 | -112.37751 | 35959 ft | 430 kts | 233° |
| 2026-04-21 02:31 | 37.16853 | -112.43786 | 35955 ft | 430 kts | 233° |
| 2026-04-21 02:31 | 37.13280 | -112.49822 | 35956 ft | 432 kts | 232° |
| 2026-04-21 02:32 | 37.09695 | -112.55872 | 35961 ft | 433 kts | 233° |
| 2026-04-21 02:32 | 37.06094 | -112.61938 | 35966 ft | 434 kts | 232° |
| 2026-04-21 02:33 | 37.02501 | -112.67975 | 35986 ft | 435 kts | 232° |
| 2026-04-21 02:33 | 36.98880 | -112.74054 | 36021 ft | 435 kts | 232° |
| 2026-04-21 02:34 | 36.95262 | -112.80119 | 36048 ft | 434 kts | 232° |
| 2026-04-21 02:34 | 36.91672 | -112.86127 | 36067 ft | 433 kts | 232° |
| 2026-04-21 02:35 | 36.88066 | -112.92153 | 36081 ft | 432 kts | 232° |
| 2026-04-21 02:35 | 36.84467 | -112.98155 | 36073 ft | 431 kts | 232° |
| 2026-04-21 02:36 | 36.80878 | -113.04131 | 36049 ft | 429 kts | 232° |
| 2026-04-21 02:36 | 36.77295 | -113.10087 | 36026 ft | 428 kts | 232° |
| 2026-04-21 02:37 | 36.73729 | -113.16001 | 35999 ft | 426 kts | 231° |
| 2026-04-21 02:37 | 36.70166 | -113.21904 | 35951 ft | 425 kts | 231° |
| 2026-04-21 02:38 | 36.66640 | -113.27735 | 35920 ft | 424 kts | 231° |
| 2026-04-21 02:38 | 36.63095 | -113.33588 | 35922 ft | 423 kts | 231° |
| 2026-04-21 02:39 | 36.59639 | -113.39502 | 35917 ft | 422 kts | 233° |
| 2026-04-21 02:39 | 36.56268 | -113.45495 | 35928 ft | 422 kts | 233° |
| 2026-04-21 02:40 | 36.52898 | -113.51472 | 35902 ft | 422 kts | 233° |
| 2026-04-21 02:40 | 36.49513 | -113.57433 | 35907 ft | 422 kts | 233° |
| 2026-04-21 02:41 | 36.46123 | -113.63381 | 35891 ft | 422 kts | 232° |
| 2026-04-21 02:41 | 36.42751 | -113.69284 | 35892 ft | 421 kts | 232° |
| 2026-04-21 02:42 | 36.39348 | -113.75226 | 35892 ft | 422 kts | 232° |
| 2026-04-21 02:42 | 36.35947 | -113.81157 | 35877 ft | 422 kts | 232° |
| 2026-04-21 02:43 | 36.32536 | -113.87096 | 35872 ft | 422 kts | 232° |
| 2026-04-21 02:43 | 36.29130 | -113.93017 | 35858 ft | 421 kts | 232° |
| 2026-04-21 02:44 | 36.25719 | -113.98936 | 35856 ft | 421 kts | 232° |
| 2026-04-21 02:44 | 36.22338 | -114.04794 | 35842 ft | 420 kts | 232° |
| 2026-04-21 02:45 | 36.18940 | -114.10671 | 35853 ft | 420 kts | 232° |
| 2026-04-21 02:45 | 36.15538 | -114.16545 | 35827 ft | 419 kts | 232° |
| 2026-04-21 02:46 | 36.12140 | -114.22403 | 35826 ft | 418 kts | 232° |
| 2026-04-21 02:46 | 36.08742 | -114.28245 | 35821 ft | 417 kts | 231° |
| 2026-04-21 02:47 | 36.05006 | -114.33707 | 35831 ft | 415 kts | 226° |
| 2026-04-21 02:47 | 36.01122 | -114.38972 | 35831 ft | 414 kts | 227° |
| 2026-04-21 02:48 | 35.97257 | -114.44249 | 35836 ft | 414 kts | 227° |
| 2026-04-21 02:48 | 35.93439 | -114.49503 | 35846 ft | 414 kts | 227° |
| 2026-04-21 02:49 | 35.89605 | -114.54792 | 35860 ft | 413 kts | 227° |
| 2026-04-21 02:49 | 35.85768 | -114.60080 | 35824 ft | 413 kts | 227° |
| 2026-04-21 02:50 | 35.81924 | -114.65369 | 35881 ft | 413 kts | 227° |
| 2026-04-21 02:50 | 35.78079 | -114.70650 | 35888 ft | 414 kts | 227° |
| 2026-04-21 02:51 | 35.74253 | -114.75897 | 35889 ft | 414 kts | 227° |
| 2026-04-21 02:51 | 35.70397 | -114.81178 | 35928 ft | 415 kts | 227° |
| 2026-04-21 02:52 | 35.66529 | -114.86466 | 35929 ft | 415 kts | 227° |
| 2026-04-21 02:52 | 35.62668 | -114.91746 | 35926 ft | 416 kts | 227° |
| 2026-04-21 02:53 | 35.58803 | -114.97032 | 35923 ft | 416 kts | 227° |
| 2026-04-21 02:53 | 35.54934 | -115.02317 | 35958 ft | 416 kts | 228° |
| 2026-04-21 02:54 | 35.51060 | -115.07597 | 35941 ft | 416 kts | 228° |
| 2026-04-21 02:54 | 35.47136 | -115.12801 | 35940 ft | 415 kts | 226° |
| 2026-04-21 02:55 | 35.43169 | -115.17949 | 35951 ft | 415 kts | 227° |
| 2026-04-21 02:55 | 35.39241 | -115.23053 | 35955 ft | 414 kts | 227° |
| 2026-04-21 02:56 | 35.35288 | -115.28198 | 35974 ft | 414 kts | 227° |
| 2026-04-21 02:56 | 35.29374 | -115.35889 | 35982 ft | 413 kts | 226° |
| 2026-04-21 02:57 | 35.25437 | -115.41000 | 35972 ft | 411 kts | 226° |
| 2026-04-21 02:57 | 35.21513 | -115.46085 | 35973 ft | 410 kts | 226° |
| 2026-04-21 02:58 | 35.17595 | -115.51157 | 35964 ft | 410 kts | 226° |
| 2026-04-21 02:58 | 35.13704 | -115.56186 | 35969 ft | 410 kts | 226° |
| 2026-04-21 02:59 | 35.09756 | -115.61263 | 35974 ft | 414 kts | 226° |
| 2026-04-21 02:59 | 35.05787 | -115.66332 | 35946 ft | 410 kts | 226° |
| 2026-04-21 03:00 | 35.01861 | -115.71342 | 35956 ft | 407 kts | 226° |
| 2026-04-21 03:00 | 34.97960 | -115.76316 | 35949 ft | 404 kts | 226° |
| 2026-04-21 03:01 | 34.94069 | -115.81271 | 35932 ft | 403 kts | 226° |
| 2026-04-21 03:01 | 34.90214 | -115.86175 | 35934 ft | 403 kts | 226° |
| 2026-04-21 03:02 | 34.86317 | -115.91124 | 35910 ft | 405 kts | 226° |
| 2026-04-21 03:02 | 34.82410 | -115.96081 | 35926 ft | 406 kts | 225° |
| 2026-04-21 03:03 | 34.78479 | -116.01060 | 35912 ft | 408 kts | 225° |
| 2026-04-21 03:03 | 34.74542 | -116.06056 | 35902 ft | 409 kts | 226° |
| 2026-04-21 03:04 | 34.70624 | -116.11049 | 35480 ft | 412 kts | 226° |
| 2026-04-21 03:04 | 34.68658 | -116.13553 | 34981 ft | 408 kts | 226° |
| 2026-04-21 03:04 | 34.66701 | -116.16043 | 34470 ft | 407 kts | 226° |
| 2026-04-21 03:05 | 34.64740 | -116.18535 | 33847 ft | 408 kts | 226° |
| 2026-04-21 03:05 | 34.62775 | -116.21032 | 33166 ft | 409 kts | 226° |
| 2026-04-21 03:05 | 34.60803 | -116.23534 | 32500 ft | 410 kts | 225° |
| 2026-04-21 03:05 | 34.58829 | -116.26037 | 31836 ft | 410 kts | 225° |
| 2026-04-21 03:06 | 34.56852 | -116.28543 | 31249 ft | 410 kts | 225° |
| 2026-04-21 03:06 | 34.54870 | -116.31052 | 30798 ft | 415 kts | 225° |
| 2026-04-21 03:06 | 34.52855 | -116.33601 | 30302 ft | 420 kts | 225° |
| 2026-04-21 03:06 | 34.50841 | -116.36147 | 29774 ft | 417 kts | 225° |
| 2026-04-21 03:07 | 34.48843 | -116.38674 | 29220 ft | 413 kts | 225° |
| 2026-04-21 03:07 | 34.46859 | -116.41180 | 28695 ft | 409 kts | 225° |
| 2026-04-21 03:07 | 34.44896 | -116.43657 | 28051 ft | 408 kts | 225° |
| 2026-04-21 03:07 | 34.42918 | -116.46148 | 27270 ft | 411 kts | 225° |
| 2026-04-21 03:08 | 34.41114 | -116.48827 | 26633 ft | 411 kts | 238° |
| 2026-04-21 03:08 | 34.40248 | -116.50873 | 26297 ft | 412 kts | 242° |
| 2026-04-21 03:08 | 34.38600 | -116.55066 | 25556 ft | 419 kts | 242° |
| 2026-04-21 03:08 | 34.37336 | -116.58235 | 25008 ft | 416 kts | 242° |
| 2026-04-21 03:09 | 34.36069 | -116.61352 | 24613 ft | 407 kts | 241° |
| 2026-04-21 03:09 | 34.34828 | -116.64370 | 24459 ft | 395 kts | 241° |
| 2026-04-21 03:09 | 34.34002 | -116.66369 | 24344 ft | 393 kts | 241° |
| 2026-04-21 03:09 | 34.32762 | -116.69373 | 23994 ft | 405 kts | 241° |
| 2026-04-21 03:10 | 34.31521 | -116.72441 | 23510 ft | 406 kts | 242° |
| 2026-04-21 03:10 | 34.30300 | -116.75491 | 22977 ft | 400 kts | 242° |
| 2026-04-21 03:10 | 34.29097 | -116.78499 | 22470 ft | 395 kts | 241° |
| 2026-04-21 03:10 | 34.27902 | -116.81478 | 21967 ft | 392 kts | 241° |
| 2026-04-21 03:11 | 34.26712 | -116.84435 | 21474 ft | 391 kts | 241° |
| 2026-04-21 03:11 | 34.25525 | -116.87380 | 21016 ft | 388 kts | 241° |
| 2026-04-21 03:11 | 34.24344 | -116.90306 | 20542 ft | 387 kts | 241° |
| 2026-04-21 03:11 | 34.23165 | -116.93222 | 20073 ft | 384 kts | 241° |
| 2026-04-21 03:12 | 34.22037 | -116.96016 | 19876 ft | 364 kts | 241° |
| 2026-04-21 03:12 | 34.20970 | -116.98696 | 19630 ft | 346 kts | 243° |
| 2026-04-21 03:12 | 34.20132 | -117.01421 | 19087 ft | 342 kts | 249° |
| 2026-04-21 03:12 | 34.19443 | -117.04146 | 18614 ft | 337 kts | 250° |
| 2026-04-21 03:13 | 34.18778 | -117.06818 | 18206 ft | 330 kts | 249° |
| 2026-04-21 03:13 | 34.18097 | -117.09437 | 17872 ft | 324 kts | 249° |
| 2026-04-21 03:13 | 34.17392 | -117.12064 | 17510 ft | 333 kts | 248° |
| 2026-04-21 03:13 | 34.16668 | -117.14731 | 17157 ft | 333 kts | 249° |
| 2026-04-21 03:14 | 34.15951 | -117.17365 | 16875 ft | 328 kts | 248° |
| 2026-04-21 03:14 | 34.15235 | -117.19968 | 16543 ft | 327 kts | 248° |
| 2026-04-21 03:14 | 34.14518 | -117.22568 | 16164 ft | 326 kts | 248° |
| 2026-04-21 03:14 | 34.13802 | -117.25162 | 15780 ft | 325 kts | 248° |
| 2026-04-21 03:15 | 34.13090 | -117.27743 | 15398 ft | 324 kts | 248° |
| 2026-04-21 03:15 | 34.12383 | -117.30310 | 15019 ft | 323 kts | 249° |
| 2026-04-21 03:15 | 34.11674 | -117.32879 | 14637 ft | 322 kts | 249° |
| 2026-04-21 03:15 | 34.10969 | -117.35433 | 14251 ft | 320 kts | 249° |
| 2026-04-21 03:16 | 34.10275 | -117.37979 | 13851 ft | 319 kts | 250° |
| 2026-04-21 03:16 | 34.09631 | -117.40538 | 13418 ft | 318 kts | 251° |
| 2026-04-21 03:16 | 34.09003 | -117.43089 | 12998 ft | 316 kts | 250° |
| 2026-04-21 03:16 | 34.08375 | -117.45623 | 12597 ft | 315 kts | 250° |
| 2026-04-21 03:17 | 34.07746 | -117.48142 | 12232 ft | 313 kts | 250° |
| 2026-04-21 03:17 | 34.07091 | -117.50630 | 11895 ft | 308 kts | 246° |
| 2026-04-21 03:17 | 34.06277 | -117.52996 | 11640 ft | 302 kts | 243° |
| 2026-04-21 03:17 | 34.05433 | -117.55263 | 11389 ft | 299 kts | 243° |
| 2026-04-21 03:18 | 34.04579 | -117.57548 | 11142 ft | 299 kts | 243° |
| 2026-04-21 03:18 | 34.03733 | -117.59845 | 10901 ft | 300 kts | 243° |
| 2026-04-21 03:18 | 34.02897 | -117.62147 | 10651 ft | 296 kts | 243° |
| 2026-04-21 03:18 | 34.02080 | -117.64412 | 10401 ft | 285 kts | 243° |
| 2026-04-21 03:19 | 34.01313 | -117.66540 | 10169 ft | 276 kts | 243° |
| 2026-04-21 03:19 | 34.00619 | -117.68658 | 9898 ft | 271 kts | 252° |
| 2026-04-21 03:19 | 34.00360 | -117.70903 | 9569 ft | 271 kts | 260° |
| 2026-04-21 03:19 | 34.00174 | -117.73175 | 9257 ft | 274 kts | 260° |
| 2026-04-21 03:20 | 33.99972 | -117.75461 | 8945 ft | 274 kts | 260° |
| 2026-04-21 03:20 | 33.99763 | -117.77736 | 8663 ft | 272 kts | 260° |
| 2026-04-21 03:20 | 33.99545 | -117.80001 | 8381 ft | 271 kts | 260° |
| 2026-04-21 03:20 | 33.99325 | -117.82247 | 8106 ft | 269 kts | 260° |
| 2026-04-21 03:21 | 33.99108 | -117.84484 | 7828 ft | 268 kts | 260° |
| 2026-04-21 03:21 | 33.98891 | -117.86708 | 7554 ft | 266 kts | 260° |
| 2026-04-21 03:21 | 33.98683 | -117.88915 | 7288 ft | 265 kts | 261° |
| 2026-04-21 03:21 | 33.98505 | -117.91123 | 7003 ft | 264 kts | 262° |
| 2026-04-21 03:22 | 33.98323 | -117.93319 | 6738 ft | 263 kts | 263° |
| 2026-04-21 03:22 | 33.98168 | -117.95507 | 6460 ft | 262 kts | 262° |
| 2026-04-21 03:22 | 33.97979 | -117.97687 | 6190 ft | 261 kts | 261° |
| 2026-04-21 03:22 | 33.97762 | -117.99860 | 5922 ft | 261 kts | 261° |
| 2026-04-21 03:23 | 33.97535 | -118.02024 | 5671 ft | 259 kts | 260° |
| 2026-04-21 03:23 | 33.97307 | -118.04158 | 5548 ft | 259 kts | 260° |
| 2026-04-21 03:23 | 33.97074 | -118.06339 | 5240 ft | 264 kts | 261° |
| 2026-04-21 03:23 | 33.96842 | -118.08530 | 4886 ft | 261 kts | 261° |
| 2026-04-21 03:24 | 33.96617 | -118.10669 | 4533 ft | 254 kts | 262° |
| 2026-04-21 03:24 | 33.96397 | -118.12756 | 4205 ft | 248 kts | 262° |
| 2026-04-21 03:24 | 33.96182 | -118.14794 | 3894 ft | 241 kts | 262° |
| 2026-04-21 03:24 | 33.95976 | -118.16755 | 3567 ft | 231 kts | 262° |
| 2026-04-21 03:25 | 33.95779 | -118.18636 | 3294 ft | 220 kts | 262° |
| 2026-04-21 03:25 | 33.95594 | -118.20399 | 3005 ft | 210 kts | 262° |
| 2026-04-21 03:25 | 33.95416 | -118.22101 | 2727 ft | 200 kts | 262° |
| 2026-04-21 03:25 | 33.95247 | -118.23723 | 2466 ft | 191 kts | 262° |
| 2026-04-21 03:26 | 33.95085 | -118.25277 | 2211 ft | 183 kts | 262° |
| 2026-04-21 03:26 | 33.94929 | -118.26781 | 1982 ft | 179 kts | 261° |
| 2026-04-21 03:26 | 33.94778 | -118.28228 | 1748 ft | 170 kts | 262° |
| 2026-04-21 03:26 | 33.94636 | -118.29598 | 1524 ft | 158 kts | 262° |
| 2026-04-21 03:27 | 33.94507 | -118.30841 | 1299 ft | 146 kts | 262° |
| 2026-04-21 03:27 | 33.94386 | -118.32001 | 1125 ft | 139 kts | 261° |
| 2026-04-21 03:27 | 33.94242 | -118.33171 | 918 ft | 142 kts | 261° |
| 2026-04-21 03:27 | 33.94117 | -118.34337 | 774 ft | 137 kts | 264° |
| 2026-04-21 03:28 | 33.94014 | -118.35461 | 571 ft | 134 kts | 264° |
| 2026-04-21 03:28 | 33.93901 | -118.36597 | 414 ft | 137 kts | 266° |
| 2026-04-21 03:28 | 33.93796 | -118.37732 | 246 ft | 135 kts | 262° |
| 2026-04-21 03:28 | 33.93681 | -118.38810 | 97 ft | 123 kts | 262° |
| 2026-04-21 03:29 | 33.93593 | -118.39646 | 94 ft | 71 kts | 263° |
| 2026-04-21 03:29 | 33.93579 | -118.40181 | 94 ft | 53 kts | 279° |
| 2026-04-21 03:29 | 33.93618 | -118.40342 | 95 ft | 0 kts | 291° |
| 2026-04-21 03:30 | 33.93625 | -118.40372 | 96 ft | 10 kts | 282° |
| 2026-04-21 03:30 | 33.93618 | -118.40504 | 94 ft | 19 kts | 263° |
| 2026-04-21 03:31 | 33.93602 | -118.40661 | 93 ft | 18 kts | 263° |
| 2026-04-21 03:31 | 33.93599 | -118.40810 | 93 ft | 18 kts | 282° |
| 2026-04-21 03:31 | 33.93681 | -118.40899 | 95 ft | 17 kts | 351° |
| 2026-04-21 03:31 | 33.93777 | -118.40913 | 93 ft | 0 kts | 353° |
| 2026-04-21 03:32 | 33.93779 | -118.40913 | 93 ft | 1 kts | 353° |
| 2026-04-21 03:32 | 33.93786 | -118.40906 | 93 ft | 4 kts | 54° |
| 2026-04-21 03:32 | 33.93794 | -118.40856 | 93 ft | 7 kts | 85° |
| 2026-04-21 03:32 | 33.93799 | -118.40774 | 94 ft | 15 kts | 84° |
| 2026-04-21 03:33 | 33.93814 | -118.40633 | 94 ft | 18 kts | 82° |
| 2026-04-21 03:33 | 33.93830 | -118.40489 | 95 ft | 17 kts | 82° |
| 2026-04-21 03:33 | 33.93843 | -118.40350 | 95 ft | 16 kts | 82° |
| 2026-04-21 03:33 | 33.93858 | -118.40216 | 95 ft | 16 kts | 82° |
| 2026-04-21 03:34 | 33.93872 | -118.40088 | 95 ft | 15 kts | 83° |
| 2026-04-21 03:34 | 33.93886 | -118.39960 | 97 ft | 17 kts | 83° |
| 2026-04-21 03:34 | 33.93909 | -118.39823 | 95 ft | 17 kts | 49° |
| 2026-04-21 03:34 | 33.94020 | -118.39821 | 94 ft | 16 kts | 354° |
| 2026-04-21 03:35 | 33.94132 | -118.39836 | 93 ft | 16 kts | 354° |
| 2026-04-21 03:35 | 33.94235 | -118.39850 | 93 ft | 5 kts | 353° |
| 2026-04-21 03:35 | 33.94264 | -118.39832 | 93 ft | 5 kts | 60° |
| 2026-04-21 03:35 | 33.94276 | -118.39805 | 92 ft | 0 kts | 62° |
| 2026-04-21 03:36 | 33.94278 | -118.39799 | 93 ft | 2 kts | 63° |